.
WxDataArchive / Data Records for 2009-07-27
2009-07-26 July 2009 2009-07-28

Data Records for Monday, 27 July 2009

Time	Temp	Chill	HIndex	Humid	Dewpt	 Wind 	HiWind	WindDir	Rain 	Barom 
-----	----	-----	------	-----	-----	------	------	-------	-----	----- 
00:00	63.5	63.5	63.5	91	60.8	0	0	---	0.00	29.877 
00:05	63.4	63.4	63.4	91	60.7	0	0	---	0.00	29.877 
00:10	63.2	63.2	63.2	91	60.5	0	0	---	0.00	29.877 
00:15	63.1	63.1	63.1	91	60.4	0	0	---	0.00	29.878 
00:20	63.1	63.1	63.1	91	60.4	0	0	---	0.00	29.878 
00:25	62.9	62.9	62.9	91	60.2	0	0	---	0.00	29.878 
00:30	62.7	62.7	62.7	92	60.3	0	0	---	0.00	29.882 
00:35	62.7	62.7	62.7	92	60.3	0	0	---	0.00	29.882 
00:40	62.7	62.7	62.7	92	60.3	0	0	---	0.00	29.882 
00:45	62.7	62.7	62.7	92	60.3	0	0	---	0.00	29.892 
00:50	62.9	62.9	62.9	93	60.8	0	0	---	0.00	29.892 
00:55	63.2	63.2	63.2	93	61.1	0	0	---	0.00	29.892 
01:00	63.2	63.2	63.2	93	61.1	0	0	---	0.00	29.892 
01:05	63.4	63.4	63.4	93	61.3	0	0	---	0.00	29.892 
01:10	63.4	63.4	63.4	93	61.3	0	0	---	0.00	29.892 
01:15	63.4	63.4	63.4	94	61.6	0	0	---	0.00	29.891 
01:20	63.4	63.4	63.4	94	61.6	0	0	---	0.00	29.891 
01:25	63.4	63.4	63.4	94	61.6	0	0	---	0.00	29.891 
01:30	63.4	63.4	63.4	94	61.6	0	0	---	0.00	29.891 
01:35	63.4	63.4	63.4	94	61.6	0	0	---	0.00	29.891 
01:40	63.2	63.2	63.2	94	61.4	0	0	---	0.00	29.891 
01:45	63.2	63.2	63.2	94	61.4	0	0	---	0.00	29.891 
01:50	63.1	63.1	63.1	94	61.3	0	0	---	0.00	29.891 
01:55	62.9	62.9	62.9	94	61.1	0	0	---	0.00	29.891 
02:00	62.9	62.9	62.9	94	61.1	0	0	---	0.00	29.889 
02:05	62.7	62.7	62.7	94	60.9	0	0	---	0.00	29.889 
02:10	62.6	62.6	62.6	94	60.8	0	0	---	0.00	29.889 
02:15	62.6	62.6	62.6	94	60.8	0	0	---	0.00	29.887 
02:20	62.4	62.4	62.4	94	60.6	0	0	---	0.00	29.887 
02:25	62.4	62.4	62.4	94	60.6	0	0	---	0.00	29.887 
02:30	62.4	62.4	62.4	95	60.9	0	0	---	0.00	29.889 
02:35	62.3	62.3	62.3	95	60.8	0	0	---	0.00	29.889 
02:40	62.3	62.3	62.3	95	60.8	0	0	---	0.00	29.889 
02:45	62.1	62.1	62.1	95	60.6	0	0	---	0.00	29.892 
02:50	62.1	62.1	62.1	95	60.6	0	0	---	0.00	29.892 
02:55	62.3	62.3	62.3	95	60.8	0	0	---	0.00	29.892 
03:00	62.3	62.3	62.3	95	60.8	0	0	---	0.00	29.891 
03:05	62.3	62.3	62.3	95	60.8	0	0	---	0.00	29.891 
03:10	62.4	62.4	62.4	95	60.9	0	0	---	0.00	29.891 
03:15	62.4	62.4	62.4	95	60.9	0	0	---	0.00	29.893 
03:20	62.4	62.4	62.4	95	60.9	0	0	---	0.00	29.893 
03:25	62.6	62.6	62.6	95	61.1	0	1	270	0.00	29.893 
03:30	62.6	62.6	62.6	95	61.1	0	0	---	0.00	29.891 
03:35	62.6	62.6	62.6	95	61.1	0	1	270	0.00	29.891 
03:40	62.6	62.6	62.6	95	61.1	0	1	270	0.00	29.891 
03:45	62.6	62.6	62.6	95	61.1	0	1	270	0.00	29.896 
03:50	62.6	62.6	62.6	95	61.1	0	0	---	0.00	29.896 
03:55	62.6	62.6	62.6	95	61.1	0	0	---	0.00	29.896 
04:00	62.6	62.6	62.6	95	61.1	0	0	---	0.00	29.900 
04:05	62.4	62.4	62.4	95	60.9	0	0	---	0.00	29.900 
04:10	62.4	62.4	62.4	95	60.9	0	0	---	0.00	29.900 
04:15	62.3	62.3	62.3	95	60.8	0	0	---	0.00	29.907 
04:20	62.3	62.3	62.3	95	60.8	0	0	---	0.00	29.907 
04:25	62.1	62.1	62.1	95	60.6	0	0	---	0.00	29.907 
04:30	62.1	62.1	62.1	95	60.6	0	0	---	0.00	29.907 
04:35	62.0	62.0	62.0	95	60.5	0	0	---	0.00	29.907 
04:40	62.0	62.0	62.0	95	60.5	0	0	---	0.00	29.907 
04:45	61.8	61.8	61.8	95	60.3	0	0	---	0.00	29.909 
04:50	61.8	61.8	61.8	95	60.3	0	0	---	0.00	29.909 
04:55	61.6	61.6	61.6	95	60.2	0	0	---	0.00	29.909 
05:00	61.6	61.6	61.6	95	60.2	0	0	---	0.00	29.911 
05:05	61.5	61.5	61.5	95	60.1	0	0	---	0.00	29.911 
05:10	61.5	61.5	61.5	95	60.1	0	0	---	0.00	29.911 
05:15	61.5	61.5	61.5	95	60.1	0	0	---	0.00	29.911 
05:20	61.5	61.5	61.5	95	60.1	0	0	---	0.00	29.911 
05:25	61.6	61.6	61.6	95	60.2	0	0	---	0.00	29.911 
05:30	61.5	61.5	61.5	95	60.1	0	0	---	0.00	29.909 
05:35	61.5	61.5	61.5	95	60.1	0	0	---	0.00	29.909 
05:40	61.3	61.3	61.3	95	59.9	0	0	---	0.00	29.909 
05:45	61.3	61.3	61.3	95	59.9	0	0	---	0.00	29.913 
05:50	61.3	61.3	61.3	95	59.9	0	0	---	0.00	29.913 
05:55	61.3	61.3	61.3	95	59.9	0	0	---	0.00	29.913 
06:00	61.3	61.3	61.3	95	59.9	0	0	---	0.00	29.916 
06:05	61.3	61.3	61.3	96	60.1	0	0	---	0.00	29.916 
06:10	61.3	61.3	61.3	96	60.1	0	0	---	0.00	29.916 
06:15	61.3	61.3	61.3	96	60.1	0	0	---	0.00	29.914 
06:20	61.3	61.3	61.3	96	60.1	0	0	---	0.00	29.914 
06:25	61.2	61.2	61.2	96	60.0	0	0	---	0.00	29.914 
06:30	61.2	61.2	61.2	96	60.0	0	0	---	0.00	29.916 
06:35	61.0	61.0	61.0	96	59.8	0	0	---	0.00	29.916 
06:40	60.9	60.9	60.9	96	59.7	0	0	---	0.00	29.916 
06:45	60.7	60.7	60.7	95	59.3	0	0	---	0.00	29.919 
06:50	60.7	60.7	60.7	96	59.6	0	0	---	0.00	29.919 
06:55	60.7	60.7	60.7	96	59.6	0	0	---	0.00	29.919 
07:00	60.7	60.7	60.7	96	59.6	0	0	---	0.00	29.926 
07:05	60.9	60.9	60.9	96	59.7	0	0	---	0.00	29.926 
07:10	60.9	60.9	60.9	96	59.7	0	0	---	0.00	29.926 
07:15	61.0	61.0	61.0	96	59.8	0	0	---	0.00	29.928 
07:20	61.3	61.3	61.3	96	60.1	0	0	---	0.00	29.928 
07:25	61.6	61.6	61.6	96	60.4	0	0	---	0.00	29.928 
07:30	62.1	62.1	62.1	96	60.9	0	0	---	0.00	29.931 
07:35	62.4	62.4	62.4	96	61.2	0	0	---	0.00	29.931 
07:40	62.9	62.9	62.9	96	61.7	0	1	270	0.00	29.931 
07:45	63.2	63.2	63.2	96	62.0	0	1	270	0.00	29.930 
07:50	63.4	63.4	63.4	96	62.2	0	1	270	0.00	29.930 
07:55	63.7	63.7	63.7	96	62.5	0	1	270	0.00	29.930 
08:00	64.0	64.0	64.0	96	62.8	0	1	270	0.00	29.934 
08:05	64.3	64.3	64.3	96	63.1	0	1	270	0.00	29.934 
08:10	64.8	64.8	64.8	95	63.3	0	1	270	0.00	29.934 
08:15	65.2	65.2	65.2	94	63.4	1	2	270	0.00	29.940 
08:20	65.5	65.5	65.5	93	63.4	1	2	270	0.00	29.940 
08:25	65.6	65.6	65.6	92	63.2	1	2	270	0.00	29.940 
08:30	66.1	66.1	66.1	91	63.4	1	1	270	0.00	29.948 
08:35	66.6	66.6	66.6	89	63.3	1	3	270	0.00	29.948 
08:40	66.9	66.9	66.9	88	63.2	1	3	270	0.00	29.948 
08:45	67.4	67.4	67.4	87	63.4	1	3	270	0.00	29.951 
08:50	67.9	67.9	67.9	85	63.2	1	2	270	0.00	29.951 
08:55	68.6	68.6	68.6	84	63.6	1	2	270	0.00	29.951 
09:00	69.1	69.1	69.1	83	63.7	0	1	270	0.00	29.948 
09:05	69.6	69.6	69.6	82	63.9	0	1	270	0.00	29.948 
09:10	70.3	70.3	70.3	81	64.2	0	2	270	0.00	29.948 
09:15	70.8	70.8	70.8	79	64.0	0	1	270	0.00	29.952 
09:20	71.3	71.3	71.3	78	64.1	0	2	270	0.00	29.952 
09:25	71.6	71.6	71.6	76	63.6	1	2	270	0.00	29.952 
09:30	72.0	72.0	72.0	75	63.6	0	2	270	0.00	29.952 
09:35	72.5	72.5	72.5	74	63.7	1	3	248	0.00	29.952 
09:40	72.8	72.8	72.8	73	63.6	0	2	248	0.00	29.952 
09:45	73.3	73.3	73.3	72	63.7	0	1	248	0.00	29.946 
09:50	73.9	73.9	73.9	71	63.9	0	1	248	0.00	29.946 
09:55	74.4	74.4	74.4	69	63.5	0	2	248	0.00	29.946 
10:00	74.9	74.9	74.9	67	63.2	1	3	248	0.00	29.944 
10:05	74.9	74.9	74.9	65	62.3	0	2	248	0.00	29.944 
10:10	74.9	74.9	74.9	68	63.6	0	2	270	0.00	29.944 
10:15	75.3	75.3	77.3	65	62.7	1	2	270	0.00	29.947 
10:20	75.4	75.4	77.4	65	62.8	1	3	270	0.00	29.947 
10:25	75.6	75.6	77.6	64	62.5	1	2	270	0.00	29.947 
10:30	75.8	75.8	77.7	64	62.7	1	3	270	0.00	29.947 
10:35	76.1	76.1	78.0	63	62.6	1	2	270	0.00	29.947 
10:40	76.3	76.3	78.2	62	62.3	1	4	270	0.00	29.947 
10:45	76.5	76.5	78.3	64	63.4	1	3	270	0.00	29.947 
10:50	76.8	76.8	78.6	61	62.3	1	4	248	0.00	29.947 
10:55	77.2	77.2	79.0	61	62.7	1	2	270	0.00	29.947 
11:00	77.4	77.4	79.2	62	63.3	2	5	292	0.00	29.944 
11:05	77.7	77.7	79.4	61	63.2	1	3	292	0.00	29.944 
11:10	78.1	78.1	79.7	59	62.6	1	5	292	0.00	29.944 
11:15	78.1	78.1	79.8	60	63.1	1	4	270	0.00	29.948 
11:20	78.3	78.3	79.9	58	62.3	2	4	270	0.00	29.948 
11:25	78.5	78.5	80.1	59	63.0	1	4	270	0.00	29.948 
11:30	78.5	78.5	80.0	57	62.0	2	5	270	0.00	29.949 
11:35	78.3	78.3	79.9	58	62.3	2	5	292	0.00	29.949 
11:40	78.5	78.5	80.0	57	62.0	1	2	270	0.00	29.949 
11:45	78.8	78.8	80.2	56	61.8	1	5	248	0.00	29.950 
11:50	79.4	79.4	80.9	57	62.8	2	4	248	0.00	29.950 
11:55	79.9	79.9	81.3	56	62.8	2	4	248	0.00	29.950 
12:00	80.1	80.1	81.4	55	62.4	2	5	270	0.00	29.951 
12:05	80.1	80.1	81.4	55	62.4	1	3	315	0.00	29.951 
12:10	79.6	79.6	80.8	54	61.5	2	6	270	0.00	29.951 
12:15	79.4	79.4	80.8	56	62.3	2	5	248	0.00	29.949 
12:20	79.2	79.2	80.4	54	61.1	3	6	270	0.00	29.949 
12:25	79.6	79.6	80.9	55	62.0	1	4	248	0.00	29.949 
12:30	80.1	80.1	81.3	54	61.9	2	6	248	0.00	29.951 
12:35	80.3	80.3	81.6	55	62.6	1	3	248	0.00	29.951 
12:40	80.7	80.7	81.9	54	62.5	2	4	248	0.00	29.951 
12:45	80.5	80.5	81.7	54	62.3	2	4	292	0.00	29.947 
12:50	80.7	80.7	81.6	51	60.9	2	6	270	0.00	29.947 
12:55	80.7	80.7	81.7	52	61.4	1	5	270	0.00	29.947 
13:00	81.1	81.1	82.1	52	61.8	2	5	270	0.00	29.946 
13:05	81.1	81.1	82.1	52	61.8	2	3	248	0.00	29.946 
13:10	80.9	80.9	82.0	53	62.1	1	3	270	0.00	29.946 
13:15	81.4	81.4	82.4	52	62.1	2	5	270	0.00	29.942 
13:20	81.2	81.2	82.1	51	61.3	1	3	270	0.00	29.942 
13:25	80.7	80.7	81.7	52	61.4	2	6	270	0.00	29.942 
13:30	80.1	80.1	81.1	52	60.9	1	3	270	0.00	29.937 
13:35	80.5	80.5	81.3	50	60.1	2	6	292	0.00	29.937 
13:40	80.7	80.7	81.6	51	60.9	2	5	292	0.00	29.937 
13:45	81.1	81.1	82.1	52	61.8	2	4	248	0.00	29.934 
13:50	81.6	81.6	82.5	51	61.7	2	6	248	0.00	29.934 
13:55	81.4	81.4	82.0	49	60.4	2	6	270	0.00	29.934 
14:00	81.6	81.6	82.6	52	62.2	1	3	270	0.00	29.930 
14:05	82.2	82.2	82.8	49	61.1	2	5	292	0.00	29.930 
14:10	82.8	82.8	83.7	50	62.2	2	6	270	0.00	29.930 
14:15	83.2	83.2	84.1	50	62.6	1	3	248	0.00	29.931 
14:20	82.8	82.8	83.3	48	61.1	2	6	292	0.00	29.931 
14:25	82.4	82.4	83.2	50	61.9	2	4	270	0.00	29.931 
14:30	82.8	82.8	83.3	48	61.1	2	5	270	0.00	29.932 
14:35	83.0	83.0	83.5	48	61.3	2	6	248	0.00	29.932 
14:40	83.0	83.0	83.4	47	60.7	2	4	270	0.00	29.932 
14:45	83.2	83.2	83.6	47	60.8	2	6	270	0.00	29.925 
14:50	83.0	83.0	83.1	45	59.4	2	6	270	0.00	29.925 
14:55	82.6	82.6	83.0	47	60.3	1	4	292	0.00	29.925 
15:00	82.8	82.8	83.0	46	59.9	1	4	270	0.00	29.923 
15:05	82.4	82.4	82.6	46	59.5	3	6	270	0.00	29.923 
15:10	81.6	81.6	82.3	50	61.1	2	5	248	0.00	29.923 
15:15	82.2	82.2	83.0	50	61.7	1	5	248	0.00	29.922 
15:20	82.4	82.4	82.9	48	60.7	1	3	248	0.00	29.922 
15:25	82.4	82.4	82.6	46	59.5	2	4	270	0.00	29.922 
15:30	82.4	82.4	83.0	49	61.3	1	4	270	0.00	29.919 
15:35	82.6	82.6	83.4	50	62.0	2	5	270	0.00	29.919 
15:40	82.4	82.4	82.6	46	59.5	2	5	270	0.00	29.919 
15:45	82.6	82.6	83.0	47	60.3	2	5	270	0.00	29.918 
15:50	82.6	82.6	83.1	48	60.9	2	5	292	0.00	29.918 
15:55	82.4	82.4	82.7	47	60.1	2	4	248	0.00	29.918 
16:00	82.0	82.0	82.2	46	59.1	2	4	292	0.00	29.920 
16:05	82.0	82.0	82.3	47	59.8	2	5	270	0.00	29.920 
16:10	82.0	82.0	82.2	46	59.1	2	4	270	0.00	29.920 
16:15	81.8	81.8	82.3	48	60.2	2	5	270	0.00	29.919 
16:20	81.6	81.6	82.1	48	60.0	2	4	270	0.00	29.919 
16:25	81.8	81.8	82.1	47	59.6	1	3	248	0.00	29.919 
16:30	82.4	82.4	82.6	46	59.5	1	4	248	0.00	29.914 
16:35	82.4	82.4	82.7	47	60.1	2	3	292	0.00	29.914 
16:40	82.6	82.6	83.1	48	60.9	1	3	270	0.00	29.914 
16:45	82.8	82.8	83.0	46	59.9	1	3	248	0.00	29.910 
16:50	82.4	82.4	82.6	46	59.5	2	3	270	0.00	29.910 
16:55	82.0	82.0	82.5	48	60.3	2	4	292	0.00	29.910 
17:00	82.4	82.4	83.2	50	61.9	1	4	270	0.00	29.912 
17:05	82.4	82.4	83.0	49	61.3	2	5	270	0.00	29.912 
17:10	81.8	81.8	82.3	48	60.2	1	3	270	0.00	29.912 
17:15	81.2	81.2	81.7	48	59.6	2	3	292	0.00	29.909 
17:20	80.9	80.9	81.5	49	59.9	1	4	292	0.00	29.909 
17:25	80.9	80.9	81.6	50	60.5	0	4	270	0.00	29.909 
17:30	80.9	80.9	81.9	52	61.6	1	3	270	0.00	29.907 
17:35	80.9	80.9	81.6	50	60.5	2	4	270	0.00	29.907 
17:40	80.7	80.7	81.4	50	60.3	2	3	270	0.00	29.907 
17:45	80.7	80.7	81.6	51	60.9	1	4	270	0.00	29.908 
17:50	81.1	81.1	82.1	52	61.8	1	4	248	0.00	29.908 
17:55	81.2	81.2	82.1	51	61.3	2	4	270	0.00	29.908 
18:00	80.9	80.9	81.9	52	61.6	2	5	270	0.00	29.905 
18:05	80.9	80.9	81.9	52	61.6	1	3	270	0.00	29.905 
18:10	80.7	80.7	81.7	52	61.4	1	4	270	0.00	29.905 
18:15	80.5	80.5	81.4	51	60.7	1	3	270	0.00	29.903 
18:20	80.3	80.3	81.2	51	60.5	2	4	248	0.00	29.903 
18:25	80.1	80.1	81.1	52	60.9	2	4	270	0.00	29.903 
18:30	79.9	79.9	80.9	52	60.7	1	3	270	0.00	29.904 
18:35	79.6	79.6	80.7	53	60.9	1	3	270	0.00	29.904 
18:40	79.8	79.8	80.8	52	60.6	1	4	248	0.00	29.904 
18:45	80.1	80.1	81.2	53	61.4	1	4	270	0.00	29.905 
18:50	79.9	79.9	80.9	52	60.7	1	3	270	0.00	29.905 
18:55	80.1	80.1	81.3	54	61.9	1	2	270	0.00	29.905 
19:00	80.3	80.3	81.4	53	61.6	1	4	270	0.00	29.906 
19:05	80.1	80.1	81.3	54	61.9	1	2	270	0.00	29.906 
19:10	80.1	80.1	81.2	53	61.4	1	4	270	0.00	29.906 
19:15	79.9	79.9	81.1	54	61.7	1	4	270	0.00	29.902 
19:20	79.8	79.8	81.0	54	61.7	1	3	270	0.00	29.902 
19:25	79.8	79.8	81.0	54	61.7	1	2	270	0.00	29.902 
19:30	79.8	79.8	81.1	55	62.2	0	2	270	0.00	29.899 
19:35	79.6	79.6	80.9	55	62.0	0	2	270	0.00	29.899 
19:40	79.4	79.4	80.7	55	61.8	1	3	270	0.00	29.899 
19:45	79.2	79.2	80.5	55	61.6	1	4	270	0.00	29.902 
19:50	79.2	79.2	80.5	55	61.6	1	3	270	0.00	29.902 
19:55	79.2	79.2	80.5	55	61.6	0	2	270	0.00	29.902 
20:00	79.0	79.0	80.4	56	61.9	1	3	270	0.00	29.898 
20:05	78.8	78.8	80.2	56	61.8	0	1	270	0.00	29.898 
20:10	78.8	78.8	80.2	56	61.8	0	2	270	0.00	29.898 
20:15	78.6	78.6	80.1	57	62.1	0	1	270	0.00	29.888 
20:20	78.3	78.3	79.8	57	61.8	0	2	270	0.00	29.888 
20:25	78.1	78.1	79.6	57	61.6	0	1	225	0.00	29.888 
20:30	78.1	78.1	79.6	57	61.6	0	2	225	0.00	29.889 
20:35	77.9	77.9	79.5	58	61.9	0	1	225	0.00	29.889 
20:40	77.6	77.6	79.2	58	61.6	0	0	---	0.00	29.889 
20:45	77.4	77.4	79.1	59	61.9	0	0	---	0.00	29.886 
20:50	76.8	76.8	78.6	59	61.4	0	0	---	0.00	29.886 
20:55	76.5	76.5	78.4	60	61.6	0	1	225	0.00	29.886 
21:00	76.3	76.3	78.2	61	61.8	0	1	225	0.00	29.888 
21:05	76.0	76.0	78.0	62	62.0	0	0	---	0.00	29.888 
21:10	75.8	75.8	77.8	62	61.8	0	1	225	0.00	29.888 
21:15	75.6	75.6	77.7	62	61.6	0	0	---	0.00	29.883 
21:20	75.4	75.4	77.5	63	61.9	0	0	---	0.00	29.883 
21:25	75.1	75.1	77.2	64	62.1	0	0	---	0.00	29.883 
21:30	74.7	74.7	74.7	65	62.1	0	1	225	0.00	29.885 
21:35	74.6	74.6	74.6	65	62.0	0	0	---	0.00	29.885 
21:40	74.6	74.6	74.6	66	62.5	0	0	---	0.00	29.885 
21:45	74.2	74.2	74.2	66	62.1	0	0	---	0.00	29.890 
21:50	73.9	73.9	73.9	67	62.2	0	0	---	0.00	29.890 
21:55	73.7	73.7	73.7	67	62.0	0	0	---	0.00	29.890 
22:00	73.3	73.3	73.3	68	62.1	0	1	225	0.00	29.895 
22:05	73.0	73.0	73.0	69	62.2	0	0	---	0.00	29.895 
22:10	72.8	72.8	72.8	69	62.0	0	0	---	0.00	29.895 
22:15	72.5	72.5	72.5	70	62.1	0	0	---	0.00	29.893 
22:20	72.1	72.1	72.1	71	62.2	0	0	---	0.00	29.893 
22:25	72.0	72.0	72.0	71	62.1	0	0	---	0.00	29.893 
22:30	71.6	71.6	71.6	72	62.1	0	0	---	0.00	29.894 
22:35	71.5	71.5	71.5	73	62.4	0	0	---	0.00	29.894 
22:40	71.3	71.3	71.3	73	62.2	0	0	---	0.00	29.894 
22:45	71.1	71.1	71.1	74	62.4	0	0	---	0.00	29.887 
22:50	70.9	70.9	70.9	75	62.6	0	0	---	0.00	29.887 
22:55	70.8	70.8	70.8	75	62.5	0	0	---	0.00	29.887 
23:00	70.6	70.6	70.6	76	62.7	0	0	---	0.00	29.886 
23:05	70.4	70.4	70.4	77	62.8	0	0	---	0.00	29.886 
23:10	70.3	70.3	70.3	77	62.7	0	0	---	0.00	29.886 
23:15	70.3	70.3	70.3	77	62.7	0	0	---	0.00	29.885 
23:20	70.3	70.3	70.3	77	62.7	0	0	---	0.00	29.885 
23:25	70.3	70.3	70.3	78	63.1	0	0	---	0.00	29.885 
23:30	70.1	70.1	70.1	78	62.9	0	0	---	0.00	29.884 
23:35	69.9	69.9	69.9	78	62.7	0	0	---	0.00	29.884 
23:40	69.9	69.9	69.9	79	63.1	0	1	225	0.00	29.884 
23:45	69.9	69.9	69.9	79	63.1	0	1	225	0.00	29.877 
23:50	69.9	69.9	69.9	79	63.1	0	1	225	0.00	29.877 
23:55	69.9	69.9	69.9	79	63.1	0	0	---	0.00	29.877 

CoCoRaHS
IN-AL-39
A2 Web Hosting
Creative Commons License
GoDaddy
search engine by freefind advanced

loaded 2018-11-17 23:45:00 • last modified 2010-11-18 10:43:29
Privacy PolicyDisclaimer
• wx.awcolley.com is powered by PmWiki v.2002016 •
• all content (unless otherwise noted) © 2018 A W Colley